Main page
METAR-TAF:

METAR-TAF

Airports :

Montpellier–Méditerranée Airport

Montpellier, France

latitude: 43-35N, longitude: 003-58E, elevation: 5 m

Current weather observation

The report was made 22 minutes ago, at 04:00 UTC
Wind 2 kt from the West/Northwest
Temperature 16°C
Humidity 88%
Pressure 1017 hPa
Visibility 10 km or more
no clouds below 1500 m and no cumulonimbus

METAR: LFMT 170400Z AUTO 30002KT CAVOK 16/14 Q1017 TEMPO RA BECMG 33012KT

Time: 06:22 (04:22 UTC)

Forecast

The report was made 2 hours and 22 minutes ago, at 02:00 UTC
Forecast valid from 17 at 03 UTC to 18 at 03 UTC
Wind 12 kt from the North/Northwest
Visibility 10 km or more
Broken clouds at a height of 5600 ft
Temporary
from 17 at 03 UTC to 17 at 10 UTC
rain

TAF: LFMT 170200Z 1703/1803 33012KT 9999 BKN056 TEMPO 1703/1710 RA

Weather observations and forecasts of more than 4000 airports (METAR and TAF reports).

The available stations are represented by yellow and red dots on the map.

Hover mouse over dot to see the name of the station.

Then click to see weather observations and forecasts.

To change the map : click on the green buttons with a black cross to zoom in, on the green button with a dash to zoom out, or on the green arrows for adjacent maps.


METAR-TAF: